Time;durP1;ratioP1;P1;durP2;ratioP2;P2;SDS_P1;SDS_P2;PMS_P1;PMS_P2;Temp;Humidity;BMP_temperature;BMP_pressure;BME280_temperature;BME280_humidity;BME280_pressure;Samples;Min_cycle;Max_cycle;Signal;HPM_P1;HPM_P2
2022/05/15 00:04:47;;;;;;;12.67;4.87;;;;;;;7.04;100.00;97080.97;10456906;28;20191;-54
2022/05/15 00:09:47;;;;;;;22.33;5.57;;;;;;;7.10;100.00;97074.44;10456317;28;20244;-54
2022/05/15 00:14:48;;;;;;;12.47;4.73;;;;;;;7.10;100.00;97080.47;10456311;28;20250;-53
2022/05/15 00:19:48;;;;;;;8.63;4.50;;;;;;;7.10;100.00;97080.47;10456343;28;20216;-52
2022/05/15 00:24:49;;;;;;;14.90;5.90;;;;;;;6.97;100.00;97085.03;10455518;28;20230;-58
2022/05/15 00:29:49;;;;;;;12.47;5.00;;;;;;;6.95;100.00;97081.72;10456706;28;20247;-58
2022/05/15 00:34:49;;;;;;;15.60;5.23;;;;;;;6.91;100.00;97085.53;10455789;28;20199;-57
2022/05/15 00:39:50;;;;;;;12.67;5.40;;;;;;;6.89;100.00;97077.84;10437504;28;20295;-57
2022/05/15 00:44:51;;;;;;;14.80;5.70;;;;;;;6.84;100.00;97084.38;10437682;28;20551;-58
2022/05/15 00:49:54;;;;;;;10.47;5.33;;;;;;;6.78;100.00;97088.28;10454752;28;20240;-54
2022/05/15 00:55:03;;;;;;;16.07;6.20;;;;;;;6.66;100.00;97074.50;10455001;28;20220;-57
2022/05/15 01:00:07;;;;;;;11.87;6.20;;;;;;;6.56;100.00;97074.38;10454042;28;20204;-57
2022/05/15 01:05:10;;;;;;;12.90;5.80;;;;;;;6.55;100.00;97072.72;10436797;28;20275;-57
2022/05/15 01:10:12;;;;;;;15.17;5.77;;;;;;;6.51;100.00;97073.94;10436065;28;20608;-55
2022/05/15 01:15:21;;;;;;;14.27;5.87;;;;;;;6.58;100.00;97066.47;10419792;28;20666;-57
2022/05/15 01:20:27;;;;;;;10.63;4.03;;;;;;;6.52;100.00;97067.75;10436252;28;20219;-56
2022/05/15 01:25:31;;;;;;;15.37;6.20;;;;;;;6.46;100.00;97072.66;10434721;28;20192;-56
2022/05/15 01:30:32;;;;;;;13.37;5.70;;;;;;;6.46;100.00;97080.44;10435640;28;20223;-56
2022/05/15 01:35:33;;;;;;;12.93;5.23;;;;;;;6.39;100.00;97078.34;10435373;28;20670;-56
2022/05/15 01:40:37;;;;;;;14.80;5.20;;;;;;;6.30;100.00;97073.03;10433834;28;20299;-53
2022/05/15 01:45:39;;;;;;;15.90;6.43;;;;;;;6.31;100.00;97072.91;10435190;28;20195;-55
2022/05/15 01:50:39;;;;;;;11.50;5.20;;;;;;;6.25;100.00;97076.00;10452715;28;20216;-52
2022/05/15 01:55:40;;;;;;;16.17;5.37;;;;;;;6.20;100.00;97078.97;10434858;28;20180;-54
2022/05/15 02:00:41;;;;;;;9.73;5.50;;;;;;;6.12;100.00;97080.50;10434374;28;20725;-55
2022/05/15 02:05:42;;;;;;;11.43;5.33;;;;;;;6.14;100.00;97071.66;10434596;28;20226;-54
2022/05/15 02:10:42;;;;;;;18.53;6.47;;;;;;;6.03;100.00;97075.09;10452138;28;20308;-53
2022/05/15 02:15:43;;;;;;;13.57;6.03;;;;;;;6.01;100.00;97068.34;10451975;28;20622;-55
2022/05/15 02:20:43;;;;;;;14.63;6.30;;;;;;;5.98;100.00;97073.78;10452017;28;20196;-53
2022/05/15 02:25:43;;;;;;;13.00;5.00;;;;;;;5.96;100.00;97071.25;10451445;28;20253;-54
2022/05/15 02:30:44;;;;;;;12.73;5.70;;;;;;;5.93;100.00;97070.69;10434071;28;20220;-53
2022/05/15 02:35:44;;;;;;;16.57;5.90;;;;;;;5.84;100.00;97072.22;10452646;28;20278;-55
2022/05/15 02:40:45;;;;;;;13.60;6.33;;;;;;;5.81;100.00;97075.03;10460090;28;20210;-56
2022/05/15 02:45:46;;;;;;;12.33;5.90;;;;;;;5.82;100.00;97074.06;10442402;28;20230;-55
2022/05/15 02:51:05;;;;;;;11.40;5.87;;;;;;;5.84;100.00;97064.41;10441536;28;20594;-55
2022/05/15 02:56:10;;;;;;;17.70;6.53;;;;;;;5.83;100.00;97075.75;10441834;28;20582;-56
2022/05/15 03:01:11;;;;;;;20.20;6.40;;;;;;;5.63;100.00;97064.28;10424782;28;20206;-53
2022/05/15 03:06:12;;;;;;;18.57;5.50;;;;;;;5.53;100.00;97077.16;10459982;28;20278;-53
2022/05/15 03:11:14;;;;;;;18.30;5.87;;;;;;;5.69;100.00;97075.00;10457709;23;20217;-53
2022/05/15 03:16:18;;;;;;;14.47;5.37;;;;;;;5.71;100.00;97077.50;10457575;28;20267;-51
2022/05/15 03:21:31;;;;;;;13.43;6.50;;;;;;;5.65;100.00;97078.81;10440224;28;20765;-52
2022/05/15 03:26:40;;;;;;;11.97;4.97;;;;;;;5.63;100.00;97070.28;10440230;28;20183;-52
2022/05/15 03:31:41;;;;;;;14.83;6.40;;;;;;;5.60;100.00;97085.28;10457951;28;20220;-49
2022/05/15 03:36:43;;;;;;;18.93;5.90;;;;;;;5.61;100.00;97086.97;10457593;28;20188;-49
2022/05/15 03:41:43;;;;;;;17.33;5.53;;;;;;;5.60;100.00;97091.31;10457560;28;20215;-51
2022/05/15 03:46:44;;;;;;;15.63;6.20;;;;;;;5.60;100.00;97080.91;10438793;28;20568;-50
2022/05/15 03:51:45;;;;;;;13.10;4.53;;;;;;;5.58;100.00;97087.19;10439327;28;20219;-49
2022/05/15 03:56:51;;;;;;;10.03;4.50;;;;;;;5.58;100.00;97095.81;10456892;28;20203;-49
2022/05/15 04:01:53;;;;;;;13.43;5.67;;;;;;;5.62;100.00;97097.25;10423091;28;20216;-50
2022/05/15 04:06:55;;;;;;;19.90;6.40;;;;;;;5.53;100.00;97100.53;10456768;28;20187;-49
2022/05/15 04:11:55;;;;;;;15.83;6.00;;;;;;;5.58;100.00;97106.22;10437949;28;20269;-49
2022/05/15 04:16:56;;;;;;;12.67;5.47;;;;;;;5.72;100.00;97108.56;10456436;28;20219;-49
2022/05/15 04:22:02;;;;;;;11.10;4.97;;;;;;;5.84;100.00;97104.22;10455393;28;20207;-51
2022/05/15 04:27:03;;;;;;;14.93;5.80;;;;;;;5.93;100.00;97096.69;10437802;28;20187;-49
2022/05/15 04:32:03;;;;;;;12.87;5.50;;;;;;;6.13;100.00;97109.00;10455807;28;20703;-49
2022/05/15 04:37:04;;;;;;;10.80;5.30;;;;;;;6.38;100.00;97102.69;10455611;28;20181;-49
2022/05/15 04:42:04;;;;;;;13.03;5.10;;;;;;;6.56;100.00;97105.63;10455851;28;20208;-50
2022/05/15 04:47:05;;;;;;;9.40;4.40;;;;;;;6.74;100.00;97107.72;10455277;28;20199;-51
2022/05/15 04:52:05;;;;;;;12.57;5.17;;;;;;;6.85;100.00;97112.06;10455270;28;20215;-50
2022/05/15 04:57:06;;;;;;;17.27;5.13;;;;;;;7.10;100.00;97105.69;10455128;28;20769;-49
2022/05/15 05:02:06;;;;;;;10.47;4.30;;;;;;;7.50;100.00;97112.84;10453802;28;20219;-49
2022/05/15 05:07:06;;;;;;;13.43;5.30;;;;;;;7.85;100.00;97114.28;10456787;28;20231;-54
2022/05/15 05:12:07;;;;;;;9.10;4.60;;;;;;;7.98;100.00;97119.31;10453971;28;20242;-54
2022/05/15 05:17:08;;;;;;;11.67;4.60;;;;;;;8.27;100.00;97122.03;10454194;28;20204;-49
2022/05/15 05:22:09;;;;;;;13.50;4.43;;;;;;;8.66;100.00;97118.75;10453680;28;20212;-53
2022/05/15 05:27:09;;;;;;;13.27;4.43;;;;;;;8.96;100.00;97125.66;10453727;28;20199;-50
2022/05/15 05:32:09;;;;;;;12.10;3.90;;;;;;;9.41;100.00;97126.91;10453716;28;20223;-52
2022/05/15 05:37:10;;;;;;;9.80;3.80;;;;;;;9.77;100.00;97132.34;10453264;28;20199;-52
2022/05/15 05:42:10;;;;;;;12.23;4.13;;;;;;;10.12;100.00;97123.03;10453398;28;20212;-52
2022/05/15 05:47:11;;;;;;;12.07;4.00;;;;;;;10.47;100.00;97124.97;10453143;28;20218;-55
2022/05/15 05:52:11;;;;;;;12.30;4.17;;;;;;;10.77;100.00;97135.31;10452681;28;20232;-56
2022/05/15 05:57:12;;;;;;;9.83;3.87;;;;;;;11.29;100.00;97127.63;10452948;28;20261;-50
2022/05/15 06:02:12;;;;;;;11.85;3.85;;;;;;;11.87;100.00;97120.19;10452623;28;20348;-55
2022/05/15 06:07:16;;;;;;;8.23;3.30;;;;;;;12.72;93.83;97119.44;10452509;28;20188;-53
2022/05/15 06:12:19;;;;;;;7.00;3.35;;;;;;;13.45;89.10;97100.34;10451989;28;20301;-56
2022/05/15 06:17:21;;;;;;;8.27;3.22;;;;;;;14.57;79.52;97058.22;10452021;28;20200;-53
2022/05/15 06:22:21;;;;;;;6.00;3.13;;;;;;;15.38;74.21;97014.81;10451738;28;20558;-54
2022/05/15 06:27:22;;;;;;;8.15;3.17;;;;;;;15.43;71.90;97007.16;10452008;28;20196;-57
2022/05/15 06:32:22;;;;;;;8.23;2.75;;;;;;;17.37;66.94;96962.56;10452020;28;20369;-50
2022/05/15 06:37:23;;;;;;;13.48;2.60;;;;;;;18.93;58.32;96859.44;10451853;28;20204;-57
2022/05/15 06:42:23;;;;;;;13.43;3.20;;;;;;;17.18;62.69;96934.94;10451416;28;20212;-57
2022/05/15 06:47:25;;;;;;;12.13;3.15;;;;;;;18.93;56.50;96843.53;10433943;28;20188;-51
2022/05/15 06:52:25;;;;;;;13.30;3.05;;;;;;;19.29;53.42;96811.19;10451556;28;20216;-55
2022/05/15 06:57:28;;;;;;;14.07;3.38;;;;;;;20.10;52.14;96814.31;10451677;28;20726;-51
2022/05/15 07:02:29;;;;;;;14.85;3.85;;;;;;;21.01;50.23;96802.31;10438413;28;20208;-55
2022/05/15 07:07:30;;;;;;;11.93;3.63;;;;;;;21.25;48.52;96777.69;10445021;28;20188;-57
2022/05/15 07:12:31;;;;;;;11.65;3.13;;;;;;;21.02;50.36;96833.22;10451019;28;20235;-58
2022/05/15 07:17:31;;;;;;;14.00;3.10;;;;;;;20.69;49.76;96811.44;10451020;28;20200;-53
2022/05/15 07:22:33;;;;;;;13.95;3.95;;;;;;;21.32;48.15;96797.88;10452962;28;20207;-59
2022/05/15 07:27:33;;;;;;;10.45;2.92;;;;;;;21.97;47.41;96807.13;10458545;28;20202;-53
2022/05/15 07:32:34;;;;;;;19.02;3.63;;;;;;;20.98;47.82;96788.59;10458298;28;20224;-53
2022/05/15 07:37:35;;;;;;;13.73;3.40;;;;;;;20.45;50.64;96864.41;10458273;28;20192;-52
2022/05/15 07:42:38;;;;;;;12.80;3.25;;;;;;;22.00;47.44;96825.34;10453656;28;20282;-56
2022/05/15 07:47:38;;;;;;;14.55;3.95;;;;;;;20.00;48.62;96798.00;10457669;28;20526;-53
2022/05/15 07:52:38;;;;;;;10.40;3.70;;;;;;;20.00;50.41;96840.53;10448524;28;20216;-51
2022/05/15 07:57:39;;;;;;;59.40;14.82;;;;;;;20.74;49.00;96836.38;10416227;28;20188;-55
2022/05/15 08:02:43;;;;;;;9.25;3.92;;;;;;;19.85;50.33;96841.66;10423611;28;20208;-54
2022/05/15 08:08:01;;;;;;;10.50;3.38;;;;;;;19.60;53.17;96918.59;10428662;28;20276;-53
2022/05/15 08:13:03;;;;;;;16.17;3.90;;;;;;;20.30;50.22;96862.84;10415378;28;20236;-54
2022/05/15 08:23:34;;;;;;;11.45;4.00;;;;;;;19.41;52.61;96907.00;10414996;28;20251;-56
2022/05/15 08:28:35;;;;;;;13.65;3.75;;;;;;;20.72;47.63;96809.16;10415062;28;20216;-54
2022/05/15 08:33:37;;;;;;;15.52;3.33;;;;;;;20.78;49.59;96869.53;10395763;28;20209;-56
2022/05/15 08:38:38;;;;;;;13.30;3.70;;;;;;;21.41;48.48;96856.19;10414426;28;20188;-52
2022/05/15 08:43:43;;;;;;;14.80;3.90;;;;;;;20.53;51.71;96922.69;10414453;28;20707;-54
2022/05/15 08:48:43;;;;;;;13.75;3.58;;;;;;;21.73;45.01;96774.25;10422552;28;20230;-55
2022/05/15 08:53:46;;;;;;;12.27;3.70;;;;;;;20.46;48.50;96834.13;10445616;28;20303;-52
2022/05/15 08:58:53;;;;;;;15.55;3.25;;;;;;;20.60;48.65;96846.28;10455580;28;20651;-55
2022/05/15 09:03:54;;;;;;;10.45;3.15;;;;;;;20.61;49.83;96877.19;10412256;28;20224;-55
2022/05/15 09:09:15;;;;;;;15.32;3.35;;;;;;;20.96;48.62;96858.06;10412479;28;20702;-55
2022/05/15 09:14:43;;;;;;;12.00;3.35;;;;;;;20.22;51.20;96907.53;10414037;23;20263;-55
2022/05/15 09:19:49;;;;;;;13.52;3.45;;;;;;;20.81;49.72;96874.41;10413409;28;20201;-56
2022/05/15 09:24:54;;;;;;;10.68;3.00;;;;;;;21.20;51.61;96946.19;10412597;28;20630;-55
2022/05/15 09:29:57;;;;;;;11.48;3.17;;;;;;;21.78;48.62;96877.56;10412275;28;20224;-54
2022/05/15 09:34:59;;;;;;;18.92;4.15;;;;;;;22.81;44.92;96800.91;10412210;28;20208;-56
2022/05/15 09:40:08;;;;;;;11.65;3.47;;;;;;;23.21;41.98;96741.41;10394176;28;20628;-56
2022/05/15 09:45:27;;;;;;;11.88;3.25;;;;;;;23.42;42.79;96758.69;10411858;28;20270;-54
2022/05/15 09:50:46;;;;;;;13.68;3.40;;;;;;;23.68;41.80;96748.47;10411060;28;20220;-55
2022/05/15 09:55:57;;;;;;;14.23;3.50;;;;;;;25.90;40.97;96784.66;10411662;28;20223;-54
2022/05/15 10:01:14;;;;;;;14.88;3.92;;;;;;;24.27;43.04;96782.97;10411324;28;20199;-54
2022/05/15 10:06:19;;;;;;;12.23;3.55;;;;;;;24.88;40.48;96761.69;10411328;28;20658;-58
2022/05/15 10:11:20;;;;;;;17.60;3.58;;;;;;;23.06;42.25;96735.72;10410844;28;20267;-57
2022/05/15 10:16:25;;;;;;;14.48;3.38;;;;;;;25.03;40.28;96742.31;10410632;28;20731;-57
2022/05/15 10:21:36;;;;;;;12.90;3.63;;;;;;;24.43;40.40;96719.75;10393735;28;20234;-59
2022/05/15 10:26:59;;;;;;;10.93;3.08;;;;;;;24.29;42.95;96791.59;10393391;28;20303;-59
2022/05/15 10:32:15;;;;;;;15.27;3.53;;;;;;;25.57;40.03;96768.47;10410322;28;20691;-57
2022/05/15 10:37:40;;;;;;;14.55;3.60;;;;;;;22.01;46.46;96813.63;10393226;28;20261;-56
2022/05/15 10:42:57;;;;;;;13.68;3.42;;;;;;;24.73;40.23;96732.00;10410782;28;20208;-59
2022/05/15 10:48:20;;;;;;;11.93;3.45;;;;;;;24.90;43.15;96815.88;10406640;28;20202;-55
2022/05/15 10:59:18;;;;;;;13.02;3.53;;;;;;;26.47;38.39;96708.88;10415132;28;20188;-58
2022/05/15 11:04:41;;;;;;;13.10;3.55;;;;;;;27.32;36.90;96697.28;10418242;28;20215;-58
2022/05/15 11:10:11;;;;;;;11.80;3.47;;;;;;;27.37;37.45;96721.47;10400852;28;20639;-59
2022/05/15 11:15:33;;;;;;;16.20;3.50;;;;;;;27.87;36.01;96675.28;10399428;28;20245;-58
2022/05/15 11:20:55;;;;;;;12.00;3.50;;;;;;;27.19;36.55;96674.31;10400274;28;20200;-56
2022/05/15 11:26:01;;;;;;;13.65;3.63;;;;;;;25.57;38.79;96674.56;10399482;28;20221;-58
2022/05/15 11:31:04;;;;;;;10.75;3.17;;;;;;;26.60;39.12;96733.69;10417368;28;20240;-60
2022/05/15 11:36:11;;;;;;;14.00;3.83;;;;;;;26.98;36.19;96645.75;10416944;28;20213;-59
2022/05/15 11:41:36;;;;;;;11.68;2.85;;;;;;;28.51;34.36;96616.50;10417178;28;20189;-58
2022/05/15 11:46:46;;;;;;;12.65;3.78;;;;;;;27.34;36.63;96668.22;10416423;28;20593;-58
2022/05/15 11:52:12;;;;;;;9.20;3.35;;;;;;;27.51;36.81;96665.28;10416969;28;20221;-60
2022/05/15 11:57:31;;;;;;;11.45;2.97;;;;;;;23.67;42.29;96709.38;10416030;28;20193;-56
2022/05/15 12:02:42;;;;;;;14.05;3.08;;;;;;;26.39;38.81;96700.53;10416187;28;20209;-60
2022/05/15 12:07:54;;;;;;;10.45;3.13;;;;;;;27.68;36.17;96648.88;10397605;28;20236;-58
2022/05/15 12:13:06;;;;;;;10.40;2.70;;;;;;;27.51;36.75;96656.41;10414735;28;20232;-61
2022/05/15 12:18:23;;;;;;;12.70;3.13;;;;;;;27.77;37.80;96689.53;10397893;28;20224;-58
2022/05/15 12:23:30;;;;;;;9.07;2.58;;;;;;;28.39;35.24;96633.78;10397905;28;20211;-60
2022/05/15 12:28:52;;;;;;;12.82;3.10;;;;;;;27.30;33.66;96511.06;10414986;28;20255;-60
2022/05/15 12:33:53;;;;;;;7.68;2.85;;;;;;;28.11;34.93;96614.44;10415332;28;20258;-60
2022/05/15 12:38:54;;;;;;;7.57;2.70;;;;;;;27.26;35.62;96598.78;10414517;28;20705;-60
2022/05/15 12:43:55;;;;;;;13.50;3.50;;;;;;;28.22;35.94;96647.53;10414770;28;20208;-58
2022/05/15 12:48:55;;;;;;;9.67;2.97;;;;;;;30.00;31.94;96569.75;10414203;28;20221;-59
2022/05/15 12:53:56;;;;;;;13.70;3.53;;;;;;;26.18;35.66;96531.19;10414046;28;20527;-60
2022/05/15 12:59:06;;;;;;;10.43;2.90;;;;;;;26.50;34.75;96514.94;10414914;28;20599;-60
2022/05/15 13:04:07;;;;;;;11.63;3.70;;;;;;;27.47;35.11;96567.31;10414290;28;20256;-59
2022/05/15 13:09:10;;;;;;;9.45;3.03;;;;;;;23.95;41.03;96641.69;10413512;28;20220;-59
2022/05/15 13:14:34;;;;;;;10.10;2.70;;;;;;;27.07;35.23;96566.19;10395124;28;20245;-57
2022/05/15 13:19:40;;;;;;;7.95;2.95;;;;;;;28.06;33.49;96546.31;10395088;28;20291;-59
2022/05/15 13:24:42;;;;;;;5.85;2.30;;;;;;;28.94;32.69;96536.00;10412795;28;20574;-58
2022/05/15 13:29:42;;;;;;;7.45;2.88;;;;;;;28.33;32.73;96508.25;10412777;28;20216;-58
2022/05/15 13:34:44;;;;;;;9.48;2.88;;;;;;;28.94;32.43;96530.59;10412434;28;20209;-60
2022/05/15 13:45:10;;;;;;;10.48;2.88;;;;;;;31.59;30.21;96556.13;10412221;28;20248;-59
2022/05/15 13:50:45;;;;;;;11.88;3.10;;;;;;;29.20;30.38;96430.63;10411931;28;20216;-58
2022/05/15 13:55:47;;;;;;;10.70;2.60;;;;;;;31.29;29.44;96504.88;10411778;28;20347;-59
2022/05/15 14:01:02;;;;;;;10.27;2.67;;;;;;;32.04;28.86;96496.00;10411931;28;20187;-60
2022/05/15 14:06:29;;;;;;;11.63;2.90;;;;;;;32.80;26.78;96461.09;10411494;28;20278;-57
2022/05/15 14:11:58;;;;;;;9.98;2.75;;;;;;;32.48;28.06;96498.16;10411277;28;20278;-61
2022/05/15 14:17:03;;;;;;;10.75;2.92;;;;;;;32.41;28.35;96478.75;10410259;28;20244;-59
2022/05/15 14:22:04;;;;;;;9.38;2.40;;;;;;;34.25;26.10;96471.88;10411421;28;20263;-60
2022/05/15 14:27:06;;;;;;;8.77;2.70;;;;;;;33.48;27.06;96466.56;10410798;28;20194;-59
2022/05/15 14:32:08;;;;;;;7.85;2.70;;;;;;;34.96;25.39;96473.59;10414188;28;20220;-60
2022/05/15 14:37:09;;;;;;;6.80;2.35;;;;;;;32.38;28.22;96463.09;10419506;28;20191;-59
2022/05/15 14:42:09;;;;;;;8.33;2.77;;;;;;;35.51;24.67;96456.53;10419155;28;20195;-58
2022/05/15 14:47:14;;;;;;;7.28;2.65;;;;;;;35.41;24.19;96426.13;10419160;28;20196;-60
2022/05/15 14:52:17;;;;;;;5.13;2.38;;;;;;;34.51;25.25;96411.31;10401138;28;20224;-61
2022/05/15 14:57:20;;;;;;;10.57;2.92;;;;;;;32.48;26.62;96386.13;10418670;28;20230;-60
2022/05/15 15:02:22;;;;;;;6.95;2.30;;;;;;;33.49;25.89;96411.13;10401403;28;20184;-59
2022/05/15 15:07:23;;;;;;;8.48;2.83;;;;;;;32.88;25.25;96345.59;10417416;28;20757;-58
2022/05/15 15:12:24;;;;;;;6.55;2.53;;;;;;;32.20;26.93;96385.41;10417043;28;20326;-57
2022/05/15 15:17:24;;;;;;;4.65;2.00;;;;;;;31.79;27.79;96400.56;10438746;22;20255;-59
2022/05/15 15:22:24;;;;;;;6.73;2.23;;;;;;;32.63;26.35;96387.69;10417718;28;20250;-58
2022/05/15 15:27:25;;;;;;;7.30;2.33;;;;;;;32.41;25.35;96347.81;10417379;28;20492;-59
2022/05/15 15:32:25;;;;;;;5.05;2.22;;;;;;;32.50;25.76;96354.13;10416809;28;20536;-60
2022/05/15 15:42:44;;;;;;;5.95;2.20;;;;;;;31.88;26.81;96382.50;10416378;28;20435;-61
2022/05/15 15:47:45;;;;;;;7.80;2.53;;;;;;;33.03;26.08;96383.25;10416924;28;20307;-62
2022/05/15 15:52:45;;;;;;;6.33;2.30;;;;;;;31.12;27.16;96328.72;10416573;28;20471;-58
2022/05/15 15:57:46;;;;;;;6.95;2.45;;;;;;;31.02;27.43;96345.94;10416728;28;20528;-56
2022/05/15 16:02:46;;;;;;;8.02;2.10;;;;;;;32.76;25.06;96337.22;10415724;28;20184;-59
2022/05/15 16:07:47;;;;;;;8.97;2.17;;;;;;;30.66;27.75;96337.59;10415817;28;20307;-59
2022/05/15 16:12:47;;;;;;;9.90;2.33;;;;;;;27.45;30.56;96319.28;10415376;28;20486;-56
2022/05/15 16:17:47;;;;;;;7.63;2.27;;;;;;;26.69;32.69;96372.88;10415311;28;20323;-55
2022/05/15 16:22:49;;;;;;;4.72;2.13;;;;;;;24.86;33.55;96324.34;10415548;28;20485;-54
2022/05/15 16:27:51;;;;;;;8.45;2.47;;;;;;;24.55;35.58;96395.59;10414919;28;20216;-59
2022/05/15 16:32:51;;;;;;;9.10;2.30;;;;;;;24.30;36.29;96407.66;10415270;28;20220;-61
2022/05/15 16:37:52;;;;;;;3.50;1.83;;;;;;;23.54;36.75;96424.38;10414681;28;20216;-58
2022/05/15 16:42:52;;;;;;;11.07;2.67;;;;;;;22.95;38.58;96452.31;10414982;28;20227;-60
2022/05/15 16:47:53;;;;;;;5.57;1.98;;;;;;;22.32;37.94;96419.44;10414284;28;20220;-55
2022/05/15 16:52:53;;;;;;;9.45;1.90;;;;;;;22.33;39.07;96463.78;10415252;28;20227;-62
2022/05/15 16:57:54;;;;;;;8.10;2.17;;;;;;;22.34;38.68;96461.91;10413032;28;20251;-61
2022/05/15 17:02:54;;;;;;;4.82;2.03;;;;;;;22.00;39.09;96467.09;10413921;28;20184;-62
2022/05/15 17:07:55;;;;;;;7.22;2.42;;;;;;;21.92;39.11;96468.25;10413713;28;20218;-61
2022/05/15 17:12:56;;;;;;;4.82;2.03;;;;;;;21.78;39.84;96491.69;10412870;28;20313;-61
2022/05/15 17:17:56;;;;;;;8.57;2.00;;;;;;;21.57;40.17;96503.75;10412966;28;20237;-61
2022/05/15 17:22:57;;;;;;;7.47;2.28;;;;;;;21.29;41.02;96510.53;10412885;28;20835;-59
2022/05/15 17:27:58;;;;;;;6.07;1.90;;;;;;;21.28;40.42;96500.91;10412708;28;20707;-59
2022/05/15 17:38:18;;;;;;;9.52;2.38;;;;;;;20.67;41.67;96516.16;10412421;28;20248;-60
2022/05/15 17:43:19;;;;;;;6.90;2.47;;;;;;;20.60;43.55;96582.78;10412109;28;20674;-60
2022/05/15 17:48:19;;;;;;;4.45;1.75;;;;;;;20.41;44.31;96607.75;10411767;28;20598;-57
2022/05/15 17:53:20;;;;;;;7.20;2.25;;;;;;;19.40;47.53;96666.25;10411789;28;20204;-58
2022/05/15 17:58:20;;;;;;;7.20;2.22;;;;;;;19.20;48.24;96683.13;10410450;28;20244;-59
2022/05/15 18:03:21;;;;;;;8.32;2.28;;;;;;;18.71;49.68;96711.88;10404159;28;20203;-58
2022/05/15 18:08:21;;;;;;;3.67;1.60;;;;;;;18.52;51.48;96752.50;10409381;28;20630;-58
2022/05/15 18:13:21;;;;;;;5.63;2.80;;;;;;;18.42;51.07;96738.84;10411066;28;20192;-57
2022/05/15 18:18:22;;;;;;;5.63;2.45;;;;;;;18.20;51.59;96757.63;10410841;28;20612;-55
2022/05/15 18:23:24;;;;;;;4.15;2.08;;;;;;;17.97;51.87;96755.38;10411205;28;20569;-55
2022/05/15 18:28:25;;;;;;;5.80;2.28;;;;;;;17.72;54.06;96805.41;10410908;28;20204;-60
2022/05/15 18:33:25;;;;;;;6.10;2.40;;;;;;;17.18;57.16;96854.69;10410878;28;20193;-54
2022/05/15 18:38:25;;;;;;;10.90;2.28;;;;;;;16.31;59.76;96888.38;10410831;28;20196;-54
2022/05/15 18:43:29;;;;;;;6.03;2.25;;;;;;;15.53;63.52;96920.59;10410205;28;20191;-54
2022/05/15 18:48:30;;;;;;;4.55;2.53;;;;;;;14.44;67.45;96936.69;10410961;28;20193;-56
2022/05/15 18:58:49;;;;;;;8.90;3.83;;;;;;;13.62;72.28;96913.44;10410448;28;20587;-58
2022/05/15 19:03:49;;;;;;;6.53;2.67;;;;;;;13.39;74.11;96898.38;10410733;28;20303;-57
2022/05/15 19:08:50;;;;;;;7.38;4.10;;;;;;;13.41;74.83;96891.13;10410566;28;20220;-56
2022/05/15 19:13:52;;;;;;;4.68;2.20;;;;;;;13.46;74.87;96894.09;10409511;28;20696;-56
2022/05/15 19:18:53;;;;;;;8.38;2.70;;;;;;;12.70;78.66;96913.78;10412791;28;20192;-56
2022/05/15 19:23:53;;;;;;;4.68;3.30;;;;;;;12.79;78.84;96894.38;10417610;28;20266;-52
2022/05/15 19:28:53;;;;;;;6.50;3.42;;;;;;;12.87;77.31;96880.41;10417482;28;20315;-56
2022/05/15 19:33:54;;;;;;;7.65;3.05;;;;;;;12.82;77.35;96899.31;10417206;28;20299;-56
2022/05/15 19:38:54;;;;;;;7.10;2.72;;;;;;;12.71;77.99;96900.47;10416971;28;20279;-53
2022/05/15 19:43:55;;;;;;;6.30;2.70;;;;;;;12.50;79.01;96911.47;10416470;28;20240;-54
2022/05/15 19:48:55;;;;;;;4.55;2.42;;;;;;;12.31;80.48;96923.91;10416155;28;20227;-55
2022/05/15 19:54:00;;;;;;;4.72;2.78;;;;;;;12.16;81.54;96919.44;10416129;28;20217;-52
2022/05/15 19:59:02;;;;;;;8.15;2.60;;;;;;;12.10;82.67;96915.69;10416036;28;20181;-58
2022/05/15 20:04:02;;;;;;;7.10;2.83;;;;;;;12.06;82.92;96925.66;10416268;28;20217;-55
2022/05/15 20:14:22;;;;;;;7.13;2.55;;;;;;;11.69;85.51;96931.28;10415449;28;20254;-50
2022/05/15 20:19:23;;;;;;;8.30;2.70;;;;;;;11.51;86.83;96931.34;10415960;28;20185;-52
2022/05/15 20:24:23;;;;;;;6.27;2.90;;;;;;;11.42;88.14;96923.44;10415950;28;20240;-57
2022/05/15 20:29:24;;;;;;;8.27;2.80;;;;;;;11.15;90.19;96926.22;10416339;28;20224;-50
2022/05/15 20:34:27;;;;;;;7.00;2.80;;;;;;;11.12;90.10;96922.13;10415143;28;20691;-56
2022/05/15 20:39:28;;;;;;;6.80;2.77;;;;;;;11.07;92.06;96927.00;10415087;28;20323;-50
2022/05/15 20:44:29;;;;;;;9.37;2.67;;;;;;;10.94;92.98;96927.41;10414510;28;20244;-50
2022/05/15 20:49:29;;;;;;;7.17;2.50;;;;;;;10.89;93.97;96927.88;10414557;28;20703;-55
2022/05/15 20:54:30;;;;;;;7.03;2.73;;;;;;;10.80;94.74;96941.09;10414024;28;20213;-51
2022/05/15 20:59:30;;;;;;;7.07;3.10;;;;;;;10.67;95.55;96929.19;10414321;28;20189;-55
2022/05/15 21:04:30;;;;;;;10.53;2.70;;;;;;;10.56;96.39;96925.97;10413551;28;20219;-53
2022/05/15 21:09:31;;;;;;;8.97;2.47;;;;;;;10.35;98.56;96925.31;10413592;28;20719;-50
2022/05/15 21:14:31;;;;;;;6.30;2.30;;;;;;;10.31;99.59;96923.94;10445298;23;20814;-55
2022/05/15 21:19:33;;;;;;;4.93;2.63;;;;;;;10.18;100.00;96928.72;10454066;28;20191;-52
2022/05/15 21:24:34;;;;;;;4.97;2.40;;;;;;;10.13;100.00;96926.53;10454380;28;20215;-52
2022/05/15 21:29:34;;;;;;;4.90;2.53;;;;;;;10.06;100.00;96920.28;10454004;28;20306;-52
2022/05/15 21:34:36;;;;;;;6.53;2.53;;;;;;;10.00;100.00;96918.25;10453680;28;20302;-55
2022/05/15 21:44:55;;;;;;;7.03;2.57;;;;;;;9.86;100.00;96903.84;10452966;28;20212;-54
2022/05/15 21:49:56;;;;;;;6.17;2.70;;;;;;;9.87;100.00;96900.25;10453466;28;20698;-52
2022/05/15 21:54:56;;;;;;;8.03;2.80;;;;;;;9.78;100.00;96898.53;10452726;28;20625;-56
2022/05/15 22:00:09;;;;;;;4.90;2.77;;;;;;;9.79;100.00;96897.56;10445122;28;20278;-55
2022/05/15 22:05:16;;;;;;;4.43;2.33;;;;;;;9.83;99.96;96904.13;10446339;28;20570;-57
2022/05/15 22:10:16;;;;;;;6.40;2.80;;;;;;;9.78;99.53;96890.69;10451255;28;20220;-57
2022/05/15 22:15:17;;;;;;;4.67;2.10;;;;;;;9.66;100.00;96904.94;10450462;28;20309;-56
2022/05/15 22:20:17;;;;;;;4.57;2.13;;;;;;;9.66;100.00;96902.31;10450650;28;20183;-56
2022/05/15 22:25:18;;;;;;;9.20;2.20;;;;;;;9.62;100.00;96901.78;10450714;28;20642;-58
2022/05/15 22:30:18;;;;;;;6.10;2.20;;;;;;;9.61;100.00;96906.19;10451122;28;20215;-56
2022/05/15 22:35:19;;;;;;;4.10;2.40;;;;;;;9.56;100.00;96903.19;10450845;28;20207;-52
2022/05/15 22:40:21;;;;;;;4.57;2.40;;;;;;;9.59;99.98;96896.84;10450212;28;20199;-56
2022/05/15 22:45:21;;;;;;;4.33;2.40;;;;;;;9.57;99.64;96899.63;10449625;28;20640;-56
2022/05/15 22:50:21;;;;;;;5.57;2.43;;;;;;;9.44;100.00;96915.63;10449917;28;20247;-57
2022/05/15 22:55:22;;;;;;;8.87;2.73;;;;;;;9.49;100.00;96904.72;10454696;28;20213;-56
2022/05/15 23:00:22;;;;;;;11.87;2.57;;;;;;;9.40;99.93;96892.53;10458418;28;20230;-56
2022/05/15 23:10:42;;;;;;;5.23;2.57;;;;;;;9.28;100.00;96900.56;10457247;28;20224;-55
2022/05/15 23:15:42;;;;;;;6.23;2.43;;;;;;;9.13;100.00;96904.63;10456662;28;20624;-54
2022/05/15 23:20:42;;;;;;;4.50;2.53;;;;;;;9.04;100.00;96895.81;10457115;28;20192;-56
2022/05/15 23:25:43;;;;;;;4.87;2.47;;;;;;;9.02;100.00;96900.38;10456721;28;20258;-52
2022/05/15 23:30:43;;;;;;;5.20;2.83;;;;;;;8.85;100.00;96904.56;10456750;28;20224;-56
2022/05/15 23:35:44;;;;;;;4.37;2.50;;;;;;;8.99;100.00;96907.66;10456052;28;20218;-52
2022/05/15 23:40:44;;;;;;;4.97;2.40;;;;;;;8.89;100.00;96899.84;10456382;28;20192;-57
2022/05/15 23:45:44;;;;;;;7.40;2.50;;;;;;;8.88;100.00;96909.50;10455626;28;20239;-56
2022/05/15 23:50:45;;;;;;;7.50;2.70;;;;;;;8.80;100.00;96905.94;10455657;28;20223;-55
2022/05/15 23:55:45;;;;;;;6.60;2.43;;;;;;;8.80;100.00;96911.16;10455537;28;20220;-55
